sensor_id;sensor_type;location;lat;lon;timestamp;P1;durP1;ratioP1;P2;durP2;ratioP2
35907;SDS011;22003;50.320;8.054;2023-02-05T02:01:23;24.27;;;9.80;;
35907;SDS011;22003;50.320;8.054;2023-02-05T02:03:49;17.13;;;9.48;;
35907;SDS011;22003;50.320;8.054;2023-02-05T02:06:17;21.23;;;9.65;;
35907;SDS011;22003;50.320;8.054;2023-02-05T02:08:43;21.58;;;8.95;;
35907;SDS011;22003;50.320;8.054;2023-02-05T02:11:08;20.63;;;9.00;;
35907;SDS011;22003;50.320;8.054;2023-02-05T02:13:36;23.80;;;9.25;;
35907;SDS011;22003;50.320;8.054;2023-02-05T02:16:04;22.92;;;9.07;;
35907;SDS011;22003;50.320;8.054;2023-02-05T02:18:30;21.75;;;9.48;;
35907;SDS011;22003;50.320;8.054;2023-02-05T02:21:18;27.75;;;9.93;;
35907;SDS011;22003;50.320;8.054;2023-02-05T02:26:57;26.23;;;9.38;;
35907;SDS011;22003;50.320;8.054;2023-02-05T02:32:00;25.67;;;8.18;;
35907;SDS011;22003;50.320;8.054;2023-02-05T02:34:55;24.00;;;8.63;;
35907;SDS011;22003;50.320;8.054;2023-02-05T02:37:32;21.60;;;9.00;;
35907;SDS011;22003;50.320;8.054;2023-02-05T02:40:06;24.00;;;8.85;;
35907;SDS011;22003;50.320;8.054;2023-02-05T02:42:39;23.23;;;8.63;;
35907;SDS011;22003;50.320;8.054;2023-02-05T02:45:09;23.67;;;9.60;;
35907;SDS011;22003;50.320;8.054;2023-02-05T02:47:46;24.88;;;8.07;;
35907;SDS011;22003;50.320;8.054;2023-02-05T02:50:17;23.27;;;7.80;;
35907;SDS011;22003;50.320;8.054;2023-02-05T02:52:47;24.35;;;7.85;;
35907;SDS011;22003;50.320;8.054;2023-02-05T02:55:15;22.10;;;8.55;;
35907;SDS011;22003;50.320;8.054;2023-02-05T02:57:42;17.20;;;7.20;;
35907;SDS011;22003;50.320;8.054;2023-02-05T03:00:13;20.88;;;8.10;;
35907;SDS011;22003;50.320;8.054;2023-02-05T03:02:42;19.50;;;8.73;;
35907;SDS011;22003;50.320;8.054;2023-02-05T03:05:11;22.02;;;8.70;;
35907;SDS011;22003;50.320;8.054;2023-02-05T03:08:02;20.52;;;9.13;;
35907;SDS011;22003;50.320;8.054;2023-02-05T03:10:41;20.95;;;9.68;;
35907;SDS011;22003;50.320;8.054;2023-02-05T03:13:11;30.52;;;10.77;;
35907;SDS011;22003;50.320;8.054;2023-02-05T03:15:40;20.33;;;10.23;;
35907;SDS011;22003;50.320;8.054;2023-02-05T03:18:07;24.63;;;10.15;;
35907;SDS011;22003;50.320;8.054;2023-02-05T03:20:44;25.70;;;11.40;;
35907;SDS011;22003;50.320;8.054;2023-02-05T03:23:14;29.02;;;11.38;;
35907;SDS011;22003;50.320;8.054;2023-02-05T03:25:40;32.05;;;10.57;;
35907;SDS011;22003;50.320;8.054;2023-02-05T03:28:05;19.92;;;10.38;;
35907;SDS011;22003;50.320;8.054;2023-02-05T03:30:53;25.02;;;10.32;;
35907;SDS011;22003;50.320;8.054;2023-02-05T03:33:40;25.45;;;10.13;;
35907;SDS011;22003;50.320;8.054;2023-02-05T03:36:19;25.80;;;10.68;;
35907;SDS011;22003;50.320;8.054;2023-02-05T03:39:10;22.67;;;10.40;;
35907;SDS011;22003;50.320;8.054;2023-02-05T03:42:11;26.55;;;10.18;;
35907;SDS011;22003;50.320;8.054;2023-02-05T03:47:26;29.63;;;10.60;;
35907;SDS011;22003;50.320;8.054;2023-02-05T03:49:59;24.25;;;10.20;;
35907;SDS011;22003;50.320;8.054;2023-02-05T03:52:40;27.38;;;10.68;;
35907;SDS011;22003;50.320;8.054;2023-02-05T03:55:20;20.27;;;10.18;;
35907;SDS011;22003;50.320;8.054;2023-02-05T03:57:51;24.98;;;10.55;;
35907;SDS011;22003;50.320;8.054;2023-02-05T04:00:23;22.50;;;10.43;;
35907;SDS011;22003;50.320;8.054;2023-02-05T04:02:49;30.87;;;11.13;;
35907;SDS011;22003;50.320;8.054;2023-02-05T04:05:15;24.60;;;11.27;;
35907;SDS011;22003;50.320;8.054;2023-02-05T04:07:40;33.00;;;10.48;;
35907;SDS011;22003;50.320;8.054;2023-02-05T04:10:06;21.92;;;10.13;;
35907;SDS011;22003;50.320;8.054;2023-02-05T04:12:31;30.58;;;11.20;;
35907;SDS011;22003;50.320;8.054;2023-02-05T04:14:56;30.30;;;11.65;;
35907;SDS011;22003;50.320;8.054;2023-02-05T04:17:22;23.15;;;9.70;;
35907;SDS011;22003;50.320;8.054;2023-02-05T04:19:47;23.67;;;11.13;;
35907;SDS011;22003;50.320;8.054;2023-02-05T04:22:12;22.67;;;11.07;;
35907;SDS011;22003;50.320;8.054;2023-02-05T04:24:37;25.70;;;11.38;;
35907;SDS011;22003;50.320;8.054;2023-02-05T04:27:03;22.55;;;10.30;;
35907;SDS011;22003;50.320;8.054;2023-02-05T04:29:28;22.80;;;10.57;;
35907;SDS011;22003;50.320;8.054;2023-02-05T04:31:53;25.75;;;9.85;;
35907;SDS011;22003;50.320;8.054;2023-02-05T04:34:18;25.13;;;10.85;;
35907;SDS011;22003;50.320;8.054;2023-02-05T04:36:44;22.83;;;10.38;;
35907;SDS011;22003;50.320;8.054;2023-02-05T04:39:10;21.58;;;11.23;;
35907;SDS011;22003;50.320;8.054;2023-02-05T04:41:35;28.15;;;10.55;;
35907;SDS011;22003;50.320;8.054;2023-02-05T04:44:00;25.13;;;10.65;;
35907;SDS011;22003;50.320;8.054;2023-02-05T04:46:25;21.15;;;9.82;;
35907;SDS011;22003;50.320;8.054;2023-02-05T04:48:51;29.77;;;10.50;;
35907;SDS011;22003;50.320;8.054;2023-02-05T04:51:16;21.52;;;10.75;;
35907;SDS011;22003;50.320;8.054;2023-02-05T04:53:41;30.42;;;11.68;;
35907;SDS011;22003;50.320;8.054;2023-02-05T04:56:08;26.95;;;10.25;;
35907;SDS011;22003;50.320;8.054;2023-02-05T04:58:36;21.90;;;10.60;;
35907;SDS011;22003;50.320;8.054;2023-02-05T05:01:02;24.98;;;11.30;;
35907;SDS011;22003;50.320;8.054;2023-02-05T05:03:28;22.92;;;10.75;;
35907;SDS011;22003;50.320;8.054;2023-02-05T05:05:53;35.00;;;11.05;;
35907;SDS011;22003;50.320;8.054;2023-02-05T05:08:19;20.95;;;10.43;;
35907;SDS011;22003;50.320;8.054;2023-02-05T05:10:44;25.35;;;10.38;;
35907;SDS011;22003;50.320;8.054;2023-02-05T05:13:10;24.25;;;10.75;;
35907;SDS011;22003;50.320;8.054;2023-02-05T05:15:35;24.17;;;9.98;;
35907;SDS011;22003;50.320;8.054;2023-02-05T05:18:00;25.60;;;10.00;;
35907;SDS011;22003;50.320;8.054;2023-02-05T05:20:26;21.45;;;9.50;;
35907;SDS011;22003;50.320;8.054;2023-02-05T05:22:53;23.42;;;9.82;;
35907;SDS011;22003;50.320;8.054;2023-02-05T05:25:19;21.42;;;10.35;;
35907;SDS011;22003;50.320;8.054;2023-02-05T05:27:44;19.02;;;10.07;;
35907;SDS011;22003;50.320;8.054;2023-02-05T05:30:09;21.80;;;10.02;;
35907;SDS011;22003;50.320;8.054;2023-02-05T05:32:35;26.52;;;9.60;;
35907;SDS011;22003;50.320;8.054;2023-02-05T05:35:00;30.25;;;10.73;;
35907;SDS011;22003;50.320;8.054;2023-02-05T05:37:25;25.77;;;9.18;;
35907;SDS011;22003;50.320;8.054;2023-02-05T05:39:51;23.33;;;9.15;;
35907;SDS011;22003;50.320;8.054;2023-02-05T05:42:36;16.80;;;8.85;;
35907;SDS011;22003;50.320;8.054;2023-02-05T05:45:20;18.80;;;8.98;;
35907;SDS011;22003;50.320;8.054;2023-02-05T05:47:45;18.08;;;9.15;;
35907;SDS011;22003;50.320;8.054;2023-02-05T05:50:11;26.15;;;10.35;;
35907;SDS011;22003;50.320;8.054;2023-02-05T05:52:36;23.98;;;9.85;;
35907;SDS011;22003;50.320;8.054;2023-02-05T05:55:01;21.52;;;9.95;;
35907;SDS011;22003;50.320;8.054;2023-02-05T05:57:26;27.13;;;10.98;;
35907;SDS011;22003;50.320;8.054;2023-02-05T05:59:52;22.08;;;10.98;;
35907;SDS011;22003;50.320;8.054;2023-02-05T06:02:17;22.23;;;11.32;;
35907;SDS011;22003;50.320;8.054;2023-02-05T06:04:42;28.13;;;11.50;;
35907;SDS011;22003;50.320;8.054;2023-02-05T06:07:07;26.58;;;12.00;;
35907;SDS011;22003;50.320;8.054;2023-02-05T06:09:33;20.58;;;10.85;;
35907;SDS011;22003;50.320;8.054;2023-02-05T06:11:58;23.80;;;11.10;;
35907;SDS011;22003;50.320;8.054;2023-02-05T06:14:23;27.83;;;11.57;;
35907;SDS011;22003;50.320;8.054;2023-02-05T06:16:48;25.42;;;12.60;;
35907;SDS011;22003;50.320;8.054;2023-02-05T06:19:14;23.20;;;11.43;;
35907;SDS011;22003;50.320;8.054;2023-02-05T06:21:39;24.92;;;12.27;;
35907;SDS011;22003;50.320;8.054;2023-02-05T06:24:04;27.70;;;11.57;;
35907;SDS011;22003;50.320;8.054;2023-02-05T06:26:30;25.70;;;11.40;;
35907;SDS011;22003;50.320;8.054;2023-02-05T06:28:55;25.23;;;12.50;;
35907;SDS011;22003;50.320;8.054;2023-02-05T06:31:21;22.23;;;11.35;;
35907;SDS011;22003;50.320;8.054;2023-02-05T06:33:47;24.23;;;10.90;;
35907;SDS011;22003;50.320;8.054;2023-02-05T06:36:12;24.00;;;11.15;;
35907;SDS011;22003;50.320;8.054;2023-02-05T06:38:37;22.13;;;10.85;;
35907;SDS011;22003;50.320;8.054;2023-02-05T06:41:02;20.73;;;10.77;;
35907;SDS011;22003;50.320;8.054;2023-02-05T06:43:28;24.05;;;10.98;;
35907;SDS011;22003;50.320;8.054;2023-02-05T06:45:53;19.20;;;11.57;;
35907;SDS011;22003;50.320;8.054;2023-02-05T06:48:19;17.65;;;10.55;;
35907;SDS011;22003;50.320;8.054;2023-02-05T06:50:45;22.55;;;11.30;;
35907;SDS011;22003;50.320;8.054;2023-02-05T06:53:10;25.77;;;11.48;;
35907;SDS011;22003;50.320;8.054;2023-02-05T06:55:38;23.30;;;12.60;;
35907;SDS011;22003;50.320;8.054;2023-02-05T06:58:03;25.67;;;12.05;;
35907;SDS011;22003;50.320;8.054;2023-02-05T07:00:29;25.20;;;12.00;;
35907;SDS011;22003;50.320;8.054;2023-02-05T07:02:56;19.33;;;10.98;;
35907;SDS011;22003;50.320;8.054;2023-02-05T07:05:21;26.98;;;11.38;;
35907;SDS011;22003;50.320;8.054;2023-02-05T07:07:46;25.95;;;11.48;;
35907;SDS011;22003;50.320;8.054;2023-02-05T07:10:12;24.55;;;12.57;;
35907;SDS011;22003;50.320;8.054;2023-02-05T07:12:37;26.02;;;12.13;;
35907;SDS011;22003;50.320;8.054;2023-02-05T07:15:02;23.05;;;11.43;;
35907;SDS011;22003;50.320;8.054;2023-02-05T07:17:28;34.63;;;14.75;;
35907;SDS011;22003;50.320;8.054;2023-02-05T07:19:53;24.75;;;13.80;;
35907;SDS011;22003;50.320;8.054;2023-02-05T07:22:18;30.05;;;14.73;;
35907;SDS011;22003;50.320;8.054;2023-02-05T07:24:43;22.23;;;12.10;;
35907;SDS011;22003;50.320;8.054;2023-02-05T07:27:09;25.50;;;12.52;;
35907;SDS011;22003;50.320;8.054;2023-02-05T07:29:34;23.13;;;11.57;;
35907;SDS011;22003;50.320;8.054;2023-02-05T07:31:59;23.10;;;11.23;;
35907;SDS011;22003;50.320;8.054;2023-02-05T07:34:25;29.45;;;11.77;;
35907;SDS011;22003;50.320;8.054;2023-02-05T07:36:51;26.35;;;12.00;;
35907;SDS011;22003;50.320;8.054;2023-02-05T07:39:17;23.20;;;12.07;;
35907;SDS011;22003;50.320;8.054;2023-02-05T07:41:43;22.67;;;10.55;;
35907;SDS011;22003;50.320;8.054;2023-02-05T07:44:08;27.23;;;11.45;;
35907;SDS011;22003;50.320;8.054;2023-02-05T07:46:33;21.00;;;10.02;;
35907;SDS011;22003;50.320;8.054;2023-02-05T07:48:59;20.55;;;10.55;;
35907;SDS011;22003;50.320;8.054;2023-02-05T07:51:24;21.23;;;11.52;;
35907;SDS011;22003;50.320;8.054;2023-02-05T07:53:50;18.77;;;11.35;;
35907;SDS011;22003;50.320;8.054;2023-02-05T07:56:15;24.75;;;11.82;;
35907;SDS011;22003;50.320;8.054;2023-02-05T07:58:42;25.02;;;12.43;;
35907;SDS011;22003;50.320;8.054;2023-02-05T08:01:08;28.45;;;12.25;;
35907;SDS011;22003;50.320;8.054;2023-02-05T08:03:33;25.77;;;12.60;;
35907;SDS011;22003;50.320;8.054;2023-02-05T08:06:02;28.05;;;11.18;;
35907;SDS011;22003;50.320;8.054;2023-02-05T08:08:28;34.95;;;12.85;;
35907;SDS011;22003;50.320;8.054;2023-02-05T08:10:55;19.88;;;11.43;;
35907;SDS011;22003;50.320;8.054;2023-02-05T08:13:25;18.55;;;11.38;;
35907;SDS011;22003;50.320;8.054;2023-02-05T08:15:50;21.50;;;11.95;;
35907;SDS011;22003;50.320;8.054;2023-02-05T08:18:15;25.63;;;12.65;;
35907;SDS011;22003;50.320;8.054;2023-02-05T08:20:41;21.45;;;10.85;;
35907;SDS011;22003;50.320;8.054;2023-02-05T08:23:06;22.35;;;11.68;;
35907;SDS011;22003;50.320;8.054;2023-02-05T08:25:31;23.33;;;11.02;;
35907;SDS011;22003;50.320;8.054;2023-02-05T08:27:56;23.70;;;11.77;;
35907;SDS011;22003;50.320;8.054;2023-02-05T08:30:22;21.85;;;11.45;;
35907;SDS011;22003;50.320;8.054;2023-02-05T08:32:47;20.70;;;11.50;;
35907;SDS011;22003;50.320;8.054;2023-02-05T08:35:14;21.73;;;11.30;;
35907;SDS011;22003;50.320;8.054;2023-02-05T08:37:39;20.92;;;11.18;;
35907;SDS011;22003;50.320;8.054;2023-02-05T08:40:04;20.65;;;10.63;;
35907;SDS011;22003;50.320;8.054;2023-02-05T08:42:30;25.30;;;12.18;;
35907;SDS011;22003;50.320;8.054;2023-02-05T08:44:55;19.48;;;11.68;;
35907;SDS011;22003;50.320;8.054;2023-02-05T08:47:22;20.33;;;11.50;;
35907;SDS011;22003;50.320;8.054;2023-02-05T08:49:48;18.83;;;11.18;;
35907;SDS011;22003;50.320;8.054;2023-02-05T08:52:14;26.85;;;11.40;;
35907;SDS011;22003;50.320;8.054;2023-02-05T08:54:39;27.58;;;11.93;;
35907;SDS011;22003;50.320;8.054;2023-02-05T08:57:05;22.95;;;12.05;;
35907;SDS011;22003;50.320;8.054;2023-02-05T08:59:31;21.90;;;11.60;;
35907;SDS011;22003;50.320;8.054;2023-02-05T09:01:56;24.73;;;11.68;;
35907;SDS011;22003;50.320;8.054;2023-02-05T09:04:21;26.43;;;12.10;;
35907;SDS011;22003;50.320;8.054;2023-02-05T09:06:47;27.55;;;11.98;;
35907;SDS011;22003;50.320;8.054;2023-02-05T09:09:13;30.95;;;13.57;;
35907;SDS011;22003;50.320;8.054;2023-02-05T09:11:39;23.85;;;12.18;;
35907;SDS011;22003;50.320;8.054;2023-02-05T09:14:05;23.38;;;12.10;;
35907;SDS011;22003;50.320;8.054;2023-02-05T09:16:30;25.33;;;12.70;;
35907;SDS011;22003;50.320;8.054;2023-02-05T09:18:56;21.27;;;11.82;;
35907;SDS011;22003;50.320;8.054;2023-02-05T09:21:22;23.70;;;12.90;;
35907;SDS011;22003;50.320;8.054;2023-02-05T09:23:48;88.03;;;42.33;;
35907;SDS011;22003;50.320;8.054;2023-02-05T09:26:14;33.95;;;17.25;;
35907;SDS011;22003;50.320;8.054;2023-02-05T09:28:39;29.80;;;12.85;;
35907;SDS011;22003;50.320;8.054;2023-02-05T09:31:05;28.60;;;15.80;;
35907;SDS011;22003;50.320;8.054;2023-02-05T09:33:32;27.02;;;15.55;;
35907;SDS011;22003;50.320;8.054;2023-02-05T09:35:57;21.75;;;11.65;;
35907;SDS011;22003;50.320;8.054;2023-02-05T09:38:22;21.77;;;11.35;;
35907;SDS011;22003;50.320;8.054;2023-02-05T09:40:53;34.70;;;16.00;;
35907;SDS011;22003;50.320;8.054;2023-02-05T09:46:04;53.80;;;25.00;;
35907;SDS011;22003;50.320;8.054;2023-02-05T09:48:46;32.30;;;15.27;;
35907;SDS011;22003;50.320;8.054;2023-02-05T09:51:14;24.88;;;14.30;;
35907;SDS011;22003;50.320;8.054;2023-02-05T09:53:43;26.25;;;13.48;;
35907;SDS011;22003;50.320;8.054;2023-02-05T09:56:13;25.20;;;12.70;;
35907;SDS011;22003;50.320;8.054;2023-02-05T09:58:42;30.60;;;17.63;;
35907;SDS011;22003;50.320;8.054;2023-02-05T10:04:04;55.80;;;28.85;;
35907;SDS011;22003;50.320;8.054;2023-02-05T10:15:18;22.13;;;12.23;;
35907;SDS011;22003;50.320;8.054;2023-02-05T10:20:44;27.83;;;13.15;;
35907;SDS011;22003;50.320;8.054;2023-02-05T10:23:17;21.15;;;13.15;;
35907;SDS011;22003;50.320;8.054;2023-02-05T10:28:51;22.15;;;12.50;;
35907;SDS011;22003;50.320;8.054;2023-02-05T10:37:15;58.05;;;26.92;;
35907;SDS011;22003;50.320;8.054;2023-02-05T10:39:42;49.92;;;23.77;;
35907;SDS011;22003;50.320;8.054;2023-02-05T10:44:52;29.98;;;16.15;;
35907;SDS011;22003;50.320;8.054;2023-02-05T10:47:39;27.70;;;14.82;;
35907;SDS011;22003;50.320;8.054;2023-02-05T10:50:17;29.52;;;16.42;;
35907;SDS011;22003;50.320;8.054;2023-02-05T10:52:48;24.65;;;12.73;;
35907;SDS011;22003;50.320;8.054;2023-02-05T10:55:13;24.67;;;12.43;;
35907;SDS011;22003;50.320;8.054;2023-02-05T10:57:39;22.77;;;11.48;;
35907;SDS011;22003;50.320;8.054;2023-02-05T11:00:05;24.67;;;12.02;;
35907;SDS011;22003;50.320;8.054;2023-02-05T11:02:39;21.33;;;12.18;;
35907;SDS011;22003;50.320;8.054;2023-02-05T11:05:21;21.95;;;12.20;;
35907;SDS011;22003;50.320;8.054;2023-02-05T11:07:51;23.65;;;12.25;;
35907;SDS011;22003;50.320;8.054;2023-02-05T11:10:22;24.45;;;13.18;;
35907;SDS011;22003;50.320;8.054;2023-02-05T11:12:52;26.23;;;14.10;;
35907;SDS011;22003;50.320;8.054;2023-02-05T11:17:55;28.42;;;15.32;;
35907;SDS011;22003;50.320;8.054;2023-02-05T11:20:28;26.27;;;14.55;;
35907;SDS011;22003;50.320;8.054;2023-02-05T11:23:14;27.65;;;14.13;;
35907;SDS011;22003;50.320;8.054;2023-02-05T11:25:53;28.02;;;14.48;;
35907;SDS011;22003;50.320;8.054;2023-02-05T11:28:26;26.65;;;14.15;;
35907;SDS011;22003;50.320;8.054;2023-02-05T11:31:18;23.30;;;13.85;;
35907;SDS011;22003;50.320;8.054;2023-02-05T11:33:47;24.33;;;14.32;;
35907;SDS011;22003;50.320;8.054;2023-02-05T11:36:22;25.55;;;13.93;;
35907;SDS011;22003;50.320;8.054;2023-02-05T11:38:50;25.00;;;13.65;;
35907;SDS011;22003;50.320;8.054;2023-02-05T11:41:28;27.30;;;14.38;;
35907;SDS011;22003;50.320;8.054;2023-02-05T11:44:15;27.63;;;14.05;;
35907;SDS011;22003;50.320;8.054;2023-02-05T11:46:44;36.47;;;16.65;;
35907;SDS011;22003;50.320;8.054;2023-02-05T11:49:17;39.92;;;19.23;;
35907;SDS011;22003;50.320;8.054;2023-02-05T11:51:46;42.15;;;21.88;;
35907;SDS011;22003;50.320;8.054;2023-02-05T11:54:22;46.90;;;21.60;;
35907;SDS011;22003;50.320;8.054;2023-02-05T11:57:20;71.10;;;34.35;;
35907;SDS011;22003;50.320;8.054;2023-02-05T12:02:37;53.65;;;30.02;;
35907;SDS011;22003;50.320;8.054;2023-02-05T12:19:12;12.75;;;8.27;;
35907;SDS011;22003;50.320;8.054;2023-02-05T12:30:00;5.18;;;3.40;;
35907;SDS011;22003;50.320;8.054;2023-02-05T12:32:42;3.58;;;2.78;;
35907;SDS011;22003;50.320;8.054;2023-02-05T12:40:50;2.95;;;1.80;;
35907;SDS011;22003;50.320;8.054;2023-02-05T12:43:27;3.58;;;2.17;;
35907;SDS011;22003;50.320;8.054;2023-02-05T12:46:29;3.80;;;1.90;;
35907;SDS011;22003;50.320;8.054;2023-02-05T12:49:15;2.65;;;1.88;;
35907;SDS011;22003;50.320;8.054;2023-02-05T12:54:42;1.75;;;1.27;;
35907;SDS011;22003;50.320;8.054;2023-02-05T12:57:19;3.03;;;1.73;;
35907;SDS011;22003;50.320;8.054;2023-02-05T12:59:54;7.18;;;1.40;;
35907;SDS011;22003;50.320;8.054;2023-02-05T13:02:45;2.17;;;1.30;;
35907;SDS011;22003;50.320;8.054;2023-02-05T13:05:17;2.30;;;1.10;;
35907;SDS011;22003;50.320;8.054;2023-02-05T13:07:56;2.80;;;1.48;;
35907;SDS011;22003;50.320;8.054;2023-02-05T13:10:30;2.85;;;1.20;;
35907;SDS011;22003;50.320;8.054;2023-02-05T13:13:05;5.25;;;1.50;;
35907;SDS011;22003;50.320;8.054;2023-02-05T13:15:42;3.70;;;1.33;;
35907;SDS011;22003;50.320;8.054;2023-02-05T13:18:11;1.35;;;0.75;;
35907;SDS011;22003;50.320;8.054;2023-02-05T13:20:42;2.03;;;1.15;;
35907;SDS011;22003;50.320;8.054;2023-02-05T13:23:28;1.23;;;0.93;;
35907;SDS011;22003;50.320;8.054;2023-02-05T13:26:15;1.10;;;1.00;;
35907;SDS011;22003;50.320;8.054;2023-02-05T13:29:01;0.68;;;0.57;;
35907;SDS011;22003;50.320;8.054;2023-02-05T13:31:50;1.52;;;0.90;;
35907;SDS011;22003;50.320;8.054;2023-02-05T13:34:21;1.63;;;0.80;;
35907;SDS011;22003;50.320;8.054;2023-02-05T13:50:29;1.45;;;0.80;;
35907;SDS011;22003;50.320;8.054;2023-02-05T13:53:18;2.28;;;0.90;;
35907;SDS011;22003;50.320;8.054;2023-02-05T14:01:26;1.80;;;1.13;;
35907;SDS011;22003;50.320;8.054;2023-02-05T14:06:42;1.20;;;0.60;;
35907;SDS011;22003;50.320;8.054;2023-02-05T14:09:21;0.65;;;0.60;;
35907;SDS011;22003;50.320;8.054;2023-02-05T14:19:54;1.00;;;0.65;;
35907;SDS011;22003;50.320;8.054;2023-02-05T14:22:55;0.88;;;0.68;;
35907;SDS011;22003;50.320;8.054;2023-02-05T14:27:58;1.27;;;0.80;;
35907;SDS011;22003;50.320;8.054;2023-02-05T14:30:32;0.93;;;0.60;;
35907;SDS011;22003;50.320;8.054;2023-02-05T14:33:17;1.52;;;0.70;;
35907;SDS011;22003;50.320;8.054;2023-02-05T14:47:00;1.98;;;0.80;;
35907;SDS011;22003;50.320;8.054;2023-02-05T14:52:32;1.58;;;0.60;;
35907;SDS011;22003;50.320;8.054;2023-02-05T14:55:38;0.73;;;0.68;;
35907;SDS011;22003;50.320;8.054;2023-02-05T14:57:39;0.65;;;0.55;;
35907;SDS011;22003;50.320;8.054;2023-02-05T15:00:19;0.63;;;0.52;;
35907;SDS011;22003;50.320;8.054;2023-02-05T15:03:07;1.23;;;0.70;;
35907;SDS011;22003;50.320;8.054;2023-02-05T15:05:40;5.28;;;0.50;;
35907;SDS011;22003;50.320;8.054;2023-02-05T15:08:34;1.27;;;0.70;;
35907;SDS011;22003;50.320;8.054;2023-02-05T15:16:45;3.47;;;1.30;;
35907;SDS011;22003;50.320;8.054;2023-02-05T15:19:12;2.20;;;1.53;;
35907;SDS011;22003;50.320;8.054;2023-02-05T15:21:42;2.42;;;1.20;;
35907;SDS011;22003;50.320;8.054;2023-02-05T15:24:17;2.22;;;1.00;;
35907;SDS011;22003;50.320;8.054;2023-02-05T15:35:00;2.30;;;1.20;;
35907;SDS011;22003;50.320;8.054;2023-02-05T15:37:31;2.10;;;1.30;;
35907;SDS011;22003;50.320;8.054;2023-02-05T15:40:18;2.35;;;1.00;;
35907;SDS011;22003;50.320;8.054;2023-02-05T15:43:21;1.92;;;1.08;;
35907;SDS011;22003;50.320;8.054;2023-02-05T15:45:50;2.28;;;1.55;;
35907;SDS011;22003;50.320;8.054;2023-02-05T15:48:23;2.15;;;1.30;;
35907;SDS011;22003;50.320;8.054;2023-02-05T15:53:44;2.75;;;1.80;;
35907;SDS011;22003;50.320;8.054;2023-02-05T15:56:20;3.58;;;2.25;;
35907;SDS011;22003;50.320;8.054;2023-02-05T15:58:49;3.42;;;1.90;;
35907;SDS011;22003;50.320;8.054;2023-02-05T16:01:20;3.28;;;2.40;;
35907;SDS011;22003;50.320;8.054;2023-02-05T16:03:48;3.92;;;2.65;;
35907;SDS011;22003;50.320;8.054;2023-02-05T16:06:17;4.28;;;2.10;;
35907;SDS011;22003;50.320;8.054;2023-02-05T16:08:45;4.07;;;1.88;;
35907;SDS011;22003;50.320;8.054;2023-02-05T16:11:12;3.80;;;1.55;;
35907;SDS011;22003;50.320;8.054;2023-02-05T16:13:37;2.28;;;1.80;;
35907;SDS011;22003;50.320;8.054;2023-02-05T16:18:40;2.15;;;1.38;;
35907;SDS011;22003;50.320;8.054;2023-02-05T16:23:48;2.53;;;1.60;;
35907;SDS011;22003;50.320;8.054;2023-02-05T16:26:44;2.22;;;1.50;;
35907;SDS011;22003;50.320;8.054;2023-02-05T16:29:19;4.28;;;1.83;;
35907;SDS011;22003;50.320;8.054;2023-02-05T16:31:57;2.97;;;1.67;;
35907;SDS011;22003;50.320;8.054;2023-02-05T16:34:25;3.50;;;1.60;;
35907;SDS011;22003;50.320;8.054;2023-02-05T16:36:52;2.78;;;1.80;;
35907;SDS011;22003;50.320;8.054;2023-02-05T16:39:19;1.27;;;1.05;;
35907;SDS011;22003;50.320;8.054;2023-02-05T16:42:15;2.25;;;1.63;;
35907;SDS011;22003;50.320;8.054;2023-02-05T16:45:02;2.67;;;1.75;;
35907;SDS011;22003;50.320;8.054;2023-02-05T16:47:36;2.58;;;1.45;;
35907;SDS011;22003;50.320;8.054;2023-02-05T16:50:32;5.50;;;2.58;;
35907;SDS011;22003;50.320;8.054;2023-02-05T16:53:20;5.30;;;3.60;;
35907;SDS011;22003;50.320;8.054;2023-02-05T16:55:47;18.48;;;10.82;;
35907;SDS011;22003;50.320;8.054;2023-02-05T16:58:21;20.20;;;11.23;;
35907;SDS011;22003;50.320;8.054;2023-02-05T17:00:52;17.20;;;10.13;;
35907;SDS011;22003;50.320;8.054;2023-02-05T17:03:19;12.93;;;7.55;;
35907;SDS011;22003;50.320;8.054;2023-02-05T17:05:50;8.52;;;5.20;;
35907;SDS011;22003;50.320;8.054;2023-02-05T17:08:25;9.60;;;5.13;;
35907;SDS011;22003;50.320;8.054;2023-02-05T17:10:55;5.13;;;3.10;;
35907;SDS011;22003;50.320;8.054;2023-02-05T17:13:34;7.20;;;3.67;;
35907;SDS011;22003;50.320;8.054;2023-02-05T17:18:58;7.18;;;4.80;;
35907;SDS011;22003;50.320;8.054;2023-02-05T17:21:28;7.93;;;5.00;;
35907;SDS011;22003;50.320;8.054;2023-02-05T17:23:54;10.90;;;5.05;;
35907;SDS011;22003;50.320;8.054;2023-02-05T17:26:21;7.90;;;5.18;;
35907;SDS011;22003;50.320;8.054;2023-02-05T17:28:51;6.32;;;4.47;;
35907;SDS011;22003;50.320;8.054;2023-02-05T17:31:19;7.43;;;4.63;;
35907;SDS011;22003;50.320;8.054;2023-02-05T17:33:49;4.75;;;3.28;;
35907;SDS011;22003;50.320;8.054;2023-02-05T17:36:17;3.78;;;2.60;;
35907;SDS011;22003;50.320;8.054;2023-02-05T17:38:42;6.15;;;3.35;;
35907;SDS011;22003;50.320;8.054;2023-02-05T17:41:11;5.03;;;3.35;;
35907;SDS011;22003;50.320;8.054;2023-02-05T17:43:58;4.13;;;2.90;;
35907;SDS011;22003;50.320;8.054;2023-02-05T17:46:23;3.92;;;2.88;;
35907;SDS011;22003;50.320;8.054;2023-02-05T17:48:49;4.10;;;2.38;;
35907;SDS011;22003;50.320;8.054;2023-02-05T17:51:16;2.88;;;1.92;;
35907;SDS011;22003;50.320;8.054;2023-02-05T17:53:43;3.22;;;2.22;;
35907;SDS011;22003;50.320;8.054;2023-02-05T17:56:09;3.60;;;2.45;;
35907;SDS011;22003;50.320;8.054;2023-02-05T17:58:36;3.08;;;2.10;;
35907;SDS011;22003;50.320;8.054;2023-02-05T18:01:01;2.55;;;1.88;;
35907;SDS011;22003;50.320;8.054;2023-02-05T18:03:26;1.67;;;1.40;;
35907;SDS011;22003;50.320;8.054;2023-02-05T18:05:51;2.03;;;1.30;;
35907;SDS011;22003;50.320;8.054;2023-02-05T18:08:17;1.33;;;1.17;;
35907;SDS011;22003;50.320;8.054;2023-02-05T18:10:42;2.25;;;1.20;;
35907;SDS011;22003;50.320;8.054;2023-02-05T18:13:07;2.10;;;1.23;;
35907;SDS011;22003;50.320;8.054;2023-02-05T18:15:33;1.13;;;0.98;;
35907;SDS011;22003;50.320;8.054;2023-02-05T18:17:58;1.23;;;1.10;;
35907;SDS011;22003;50.320;8.054;2023-02-05T18:20:23;1.42;;;0.90;;
35907;SDS011;22003;50.320;8.054;2023-02-05T18:22:49;1.17;;;1.08;;
35907;SDS011;22003;50.320;8.054;2023-02-05T18:25:14;1.80;;;1.10;;
35907;SDS011;22003;50.320;8.054;2023-02-05T18:27:39;1.27;;;1.17;;
35907;SDS011;22003;50.320;8.054;2023-02-05T18:30:05;1.20;;;1.10;;
35907;SDS011;22003;50.320;8.054;2023-02-05T18:32:31;1.23;;;1.13;;
35907;SDS011;22003;50.320;8.054;2023-02-05T18:34:56;1.33;;;1.10;;
35907;SDS011;22003;50.320;8.054;2023-02-05T18:37:22;2.47;;;1.42;;
35907;SDS011;22003;50.320;8.054;2023-02-05T18:39:47;2.22;;;1.40;;
35907;SDS011;22003;50.320;8.054;2023-02-05T18:42:12;2.35;;;1.45;;
35907;SDS011;22003;50.320;8.054;2023-02-05T18:44:38;2.78;;;1.95;;
35907;SDS011;22003;50.320;8.054;2023-02-05T18:47:03;2.05;;;1.80;;
35907;SDS011;22003;50.320;8.054;2023-02-05T18:49:30;2.63;;;1.90;;
35907;SDS011;22003;50.320;8.054;2023-02-05T18:51:56;2.95;;;2.00;;
35907;SDS011;22003;50.320;8.054;2023-02-05T18:54:21;3.08;;;1.73;;
35907;SDS011;22003;50.320;8.054;2023-02-05T18:56:47;2.38;;;1.75;;
35907;SDS011;22003;50.320;8.054;2023-02-05T18:59:13;2.47;;;2.00;;
35907;SDS011;22003;50.320;8.054;2023-02-05T19:01:40;2.90;;;2.22;;
35907;SDS011;22003;50.320;8.054;2023-02-05T19:04:12;2.28;;;2.08;;
35907;SDS011;22003;50.320;8.054;2023-02-05T19:06:39;2.60;;;1.88;;
35907;SDS011;22003;50.320;8.054;2023-02-05T19:09:05;3.63;;;2.20;;
35907;SDS011;22003;50.320;8.054;2023-02-05T19:11:31;2.42;;;1.75;;
35907;SDS011;22003;50.320;8.054;2023-02-05T19:13:57;2.42;;;2.05;;
35907;SDS011;22003;50.320;8.054;2023-02-05T19:16:26;3.05;;;2.30;;